createdAt,value
2022-09-18T00:02:44.804Z,10.90
2022-09-18T00:06:32.878Z,10.90
2022-09-18T00:10:14.674Z,10.80
2022-09-18T00:13:56.843Z,10.70
2022-09-18T00:17:38.626Z,10.70
2022-09-18T00:21:24.558Z,10.60
2022-09-18T00:25:07.115Z,10.60
2022-09-18T00:28:48.939Z,10.50
2022-09-18T00:32:30.691Z,10.50
2022-09-18T00:36:15.967Z,10.40
2022-09-18T00:39:57.818Z,10.40
2022-09-18T00:43:39.687Z,10.30
2022-09-18T00:47:32.483Z,10.20
2022-09-18T00:51:16.704Z,10.20
2022-09-18T00:55:07.647Z,10.10
2022-09-18T00:58:49.748Z,10.00
2022-09-18T01:02:31.642Z,9.90
2022-09-18T01:06:22.677Z,9.90
2022-09-18T01:10:19.744Z,9.80
2022-09-18T01:14:10.480Z,9.80
2022-09-18T01:18:00.584Z,9.80
2022-09-18T01:21:55.214Z,9.70
2022-09-18T01:26:04.872Z,9.70
2022-09-18T01:30:02.459Z,9.60
2022-09-18T01:33:52.787Z,9.50
2022-09-18T01:37:45.688Z,9.50
2022-09-18T01:41:29.937Z,9.40
2022-09-18T01:45:16.245Z,9.40
2022-09-18T01:49:09.161Z,9.30
2022-09-18T01:53:00.193Z,9.30
2022-09-18T01:56:50.388Z,9.20
2022-09-18T02:00:32.392Z,9.10
2022-09-18T02:04:19.300Z,9.00
2022-09-18T02:08:10.467Z,9.00
2022-09-18T02:11:56.040Z,8.90
2022-09-18T02:15:41.611Z,8.90
2022-09-18T02:19:30.763Z,8.80
2022-09-18T02:23:12.776Z,8.80
2022-09-18T02:26:56.463Z,8.80
2022-09-18T02:30:39.396Z,8.70
2022-09-18T02:34:21.902Z,8.70
2022-09-18T02:38:18.923Z,8.60
2022-09-18T02:42:24.147Z,8.60
2022-09-18T02:46:14.825Z,8.50
2022-09-18T02:50:15.345Z,8.50
2022-09-18T02:53:57.637Z,8.40
2022-09-18T02:57:48.244Z,8.40
2022-09-18T03:01:32.423Z,8.30
2022-09-18T03:05:14.286Z,8.20
2022-09-18T03:08:57.443Z,8.20
2022-09-18T03:12:39.257Z,8.10
2022-09-18T03:16:21.152Z,8.10
2022-09-18T03:20:04.631Z,8.10
2022-09-18T03:23:46.447Z,8.10
2022-09-18T03:27:28.233Z,8.10
2022-09-18T03:31:10.914Z,8.10
2022-09-18T03:34:52.772Z,8.10
2022-09-18T03:38:37.758Z,8.10
2022-09-18T03:42:19.552Z,8.10
2022-09-18T03:46:01.934Z,8.10
2022-09-18T03:49:43.804Z,8.20
2022-09-18T03:53:26.103Z,8.20
2022-09-18T03:57:07.946Z,8.20
2022-09-18T04:00:49.691Z,8.20
2022-09-18T04:04:31.545Z,8.30
2022-09-18T04:08:13.331Z,8.30
2022-09-18T04:11:55.456Z,8.20
2022-09-18T04:15:37.248Z,8.20
2022-09-18T04:19:19.101Z,8.20
2022-09-18T04:23:00.887Z,8.10
2022-09-18T04:26:42.641Z,8.10
2022-09-18T04:30:24.458Z,8.00
2022-09-18T04:34:07.234Z,8.00
2022-09-18T04:37:48.986Z,8.00
2022-09-18T04:41:30.791Z,7.90
2022-09-18T04:45:13.096Z,7.90
2022-09-18T04:48:54.914Z,7.80
2022-09-18T04:52:36.786Z,7.80
2022-09-18T04:56:18.562Z,7.70
2022-09-18T05:00:00.340Z,7.70
2022-09-18T05:03:42.220Z,7.60
2022-09-18T05:07:24.028Z,7.60
2022-09-18T05:11:05.857Z,7.60
2022-09-18T05:14:47.616Z,7.50
2022-09-18T05:18:29.419Z,7.50
2022-09-18T05:22:11.258Z,7.40
2022-09-18T05:25:53.269Z,7.40
2022-09-18T05:29:35.676Z,7.40
2022-09-18T05:33:17.499Z,7.30
2022-09-18T05:36:59.420Z,7.30
2022-09-18T05:40:41.289Z,7.30
2022-09-18T05:44:23.248Z,7.30
2022-09-18T05:48:06.514Z,7.20
2022-09-18T05:51:48.288Z,7.20
2022-09-18T05:55:31.913Z,7.10
2022-09-18T05:59:14.362Z,7.20
2022-09-18T06:03:07.390Z,7.20
2022-09-18T06:06:49.330Z,7.10
2022-09-18T06:10:32.656Z,7.10
2022-09-18T06:14:15.067Z,7.20
2022-09-18T06:17:56.911Z,7.10
2022-09-18T06:21:38.727Z,7.20
2022-09-18T06:25:22.066Z,7.10
2022-09-18T06:29:03.924Z,7.10
2022-09-18T06:32:46.224Z,7.10
2022-09-18T06:36:27.967Z,7.10
2022-09-18T06:40:10.185Z,7.10
2022-09-18T06:43:51.978Z,7.20
2022-09-18T06:47:33.731Z,7.20
2022-09-18T06:51:15.576Z,7.20
2022-09-18T06:54:57.355Z,7.30
2022-09-18T06:58:39.123Z,7.30
2022-09-18T07:02:20.955Z,7.30
2022-09-18T07:06:02.769Z,7.40
2022-09-18T07:09:44.524Z,7.40
2022-09-18T07:13:26.283Z,7.50
2022-09-18T07:17:17.589Z,7.50
2022-09-18T07:21:00.960Z,7.60
2022-09-18T07:24:43.451Z,7.70
2022-09-18T07:28:25.270Z,7.80
2022-09-18T07:32:07.115Z,7.90
2022-09-18T07:35:49.158Z,8.00
2022-09-18T07:39:31.351Z,8.10
2022-09-18T07:43:13.347Z,8.20
2022-09-18T07:46:55.448Z,8.30
2022-09-18T07:50:37.404Z,8.40
2022-09-18T07:54:19.398Z,8.50
2022-09-18T07:58:04.539Z,8.60
2022-09-18T08:01:46.430Z,8.80
2022-09-18T08:05:28.410Z,9.00
2022-09-18T08:09:11.086Z,9.20
2022-09-18T08:12:55.766Z,9.40
2022-09-18T08:16:37.785Z,9.60
2022-09-18T08:20:19.799Z,10.00
2022-09-18T08:24:01.892Z,10.50
2022-09-18T08:27:44.099Z,10.90
2022-09-18T08:31:26.468Z,11.10
2022-09-18T08:35:09.425Z,11.20
2022-09-18T08:38:53.983Z,11.30
2022-09-18T08:42:38.755Z,11.40
2022-09-18T08:46:26.777Z,11.50
2022-09-18T08:50:28.343Z,11.50
2022-09-18T08:54:27.643Z,11.60
2022-09-18T08:58:17.384Z,11.80
2022-09-18T09:02:26.105Z,12.10
2022-09-18T09:06:29.755Z,12.40
2022-09-18T09:10:26.665Z,12.60
2022-09-18T09:14:55.359Z,13.00
2022-09-18T09:18:53.380Z,13.20
2022-09-18T09:22:50.292Z,13.40
2022-09-18T09:26:32.386Z,13.60
2022-09-18T09:30:19.923Z,13.80
2022-09-18T09:34:17.059Z,14.20
2022-09-18T09:38:05.832Z,14.80
2022-09-18T09:41:56.383Z,15.60
2022-09-18T09:45:48.866Z,16.80
2022-09-18T09:49:53.945Z,18.00
2022-09-18T09:53:36.471Z,19.10
2022-09-18T09:57:51.871Z,20.00
2022-09-18T10:01:45.831Z,20.60
2022-09-18T10:05:44.021Z,21.30
2022-09-18T10:09:52.839Z,21.70
2022-09-18T10:14:16.459Z,21.60
2022-09-18T10:18:01.400Z,21.40
2022-09-18T10:21:43.647Z,21.30
2022-09-18T10:25:42.013Z,21.40
2022-09-18T10:29:24.023Z,21.30
2022-09-18T10:33:34.662Z,21.30
2022-09-18T10:37:27.518Z,21.20
2022-09-18T10:41:30.113Z,21.10
2022-09-18T10:45:27.388Z,21.50
2022-09-18T10:49:34.616Z,22.30
2022-09-18T10:53:32.700Z,23.40
2022-09-18T10:57:36.030Z,24.30
2022-09-18T11:01:18.790Z,24.60
2022-09-18T11:05:03.467Z,25.00
2022-09-18T11:08:49.387Z,25.50
2022-09-18T11:12:31.230Z,25.30
2022-09-18T11:16:23.289Z,25.20
2022-09-18T11:20:07.130Z,24.90
2022-09-18T11:24:02.736Z,24.50
2022-09-18T11:27:50.619Z,24.00
2022-09-18T11:31:48.201Z,23.70
2022-09-18T11:35:31.703Z,23.60
2022-09-18T11:39:23.884Z,23.30
2022-09-18T11:43:15.833Z,23.10
2022-09-18T11:47:04.474Z,23.80
2022-09-18T11:50:48.107Z,23.80
2022-09-18T11:54:52.037Z,23.50
2022-09-18T11:58:33.792Z,23.30
2022-09-18T12:02:50.068Z,22.90
2022-09-18T12:06:39.815Z,22.80
2022-09-18T12:10:28.173Z,23.70
2022-09-18T12:14:20.330Z,24.30
2022-09-18T12:18:09.381Z,24.20
2022-09-18T12:22:12.566Z,24.50
2022-09-18T12:26:09.876Z,25.30
2022-09-18T12:30:08.219Z,25.50
2022-09-18T12:34:17.822Z,25.60
2022-09-18T12:38:21.135Z,25.50
2022-09-18T12:42:32.427Z,25.20
2022-09-18T12:46:49.539Z,24.90
2022-09-18T12:50:50.079Z,24.90
2022-09-18T12:54:31.874Z,24.60
2022-09-18T12:58:41.940Z,24.20
2022-09-18T13:02:51.488Z,24.80
2022-09-18T13:06:46.275Z,26.00
2022-09-18T13:10:32.096Z,26.40
2022-09-18T13:14:37.360Z,26.10
2022-09-18T13:18:32.547Z,25.50
2022-09-18T13:22:18.746Z,25.00
2022-09-18T13:26:04.302Z,24.60
2022-09-18T13:29:51.910Z,24.40
2022-09-18T13:33:33.756Z,24.40
2022-09-18T13:37:18.087Z,24.70
2022-09-18T13:41:00.449Z,25.10
2022-09-18T13:44:48.987Z,26.10
2022-09-18T13:48:46.867Z,27.30
2022-09-18T13:52:31.588Z,28.00
2022-09-18T13:56:15.455Z,28.40
2022-09-18T14:00:09.760Z,28.70
2022-09-18T14:03:51.538Z,28.90
2022-09-18T14:07:33.338Z,29.10
2022-09-18T14:11:25.131Z,29.60
2022-09-18T14:15:22.242Z,30.00
2022-09-18T14:19:24.994Z,29.60
2022-09-18T14:23:41.666Z,28.90
2022-09-18T14:27:38.746Z,29.10
2022-09-18T14:31:32.442Z,29.70
2022-09-18T14:35:32.187Z,30.30
2022-09-18T14:39:27.682Z,30.70
2022-09-18T14:43:22.147Z,30.90
2022-09-18T14:47:06.438Z,30.30
2022-09-18T14:51:00.018Z,29.20
2022-09-18T14:54:47.746Z,27.90
2022-09-18T14:58:38.291Z,26.90
2022-09-18T15:02:37.005Z,26.10
2022-09-18T15:06:28.584Z,25.60
2022-09-18T15:10:10.546Z,26.00
2022-09-18T15:13:55.071Z,26.80
2022-09-18T15:17:36.872Z,27.60
2022-09-18T15:21:33.754Z,27.60
2022-09-18T15:25:17.984Z,27.10
2022-09-18T15:29:01.796Z,26.50
2022-09-18T15:32:48.432Z,25.90
2022-09-18T15:36:37.119Z,25.70
2022-09-18T15:40:25.740Z,25.50
2022-09-18T15:44:39.322Z,25.70
2022-09-18T15:48:50.960Z,25.70
2022-09-18T15:52:48.155Z,25.60
2022-09-18T15:56:33.893Z,25.20
2022-09-18T16:00:25.108Z,24.80
2022-09-18T16:04:17.990Z,24.30
2022-09-18T16:08:01.835Z,23.90
2022-09-18T16:11:46.136Z,23.60
2022-09-18T16:15:29.419Z,23.30
2022-09-18T16:19:13.201Z,23.10
2022-09-18T16:23:19.612Z,22.90
2022-09-18T16:27:05.605Z,22.70
2022-09-18T16:30:48.488Z,22.60
2022-09-18T16:34:30.329Z,22.30
2022-09-18T16:38:12.132Z,22.20
2022-09-18T16:41:54.205Z,22.00
2022-09-18T16:45:36.364Z,21.80
2022-09-18T16:49:25.211Z,21.80
2022-09-18T16:53:08.341Z,21.60
2022-09-18T16:57:15.806Z,21.50
2022-09-18T17:00:58.915Z,21.40
2022-09-18T17:04:40.758Z,21.30
2022-09-18T17:08:22.582Z,21.20
2022-09-18T17:12:04.783Z,21.10
2022-09-18T17:15:46.665Z,21.00
2022-09-18T17:19:28.519Z,20.80
2022-09-18T17:23:10.293Z,20.70
2022-09-18T17:26:53.986Z,20.70
2022-09-18T17:30:39.307Z,20.70
2022-09-18T17:34:22.159Z,20.70
2022-09-18T17:38:04.559Z,20.60
2022-09-18T17:41:46.575Z,20.50
2022-09-18T17:45:28.407Z,20.40
2022-09-18T17:49:10.274Z,20.30
2022-09-18T17:52:52.111Z,20.30
2022-09-18T17:56:34.168Z,20.10
2022-09-18T18:00:16.483Z,20.00
2022-09-18T18:03:59.746Z,19.90
2022-09-18T18:07:41.537Z,19.90
2022-09-18T18:11:25.328Z,19.80
2022-09-18T18:15:07.720Z,19.70
2022-09-18T18:18:55.170Z,19.60
2022-09-18T18:22:36.915Z,19.50
2022-09-18T18:26:18.797Z,19.50
2022-09-18T18:30:00.593Z,19.40
2022-09-18T18:33:43.182Z,19.40
2022-09-18T18:37:25.035Z,19.30
2022-09-18T18:41:07.733Z,19.30
2022-09-18T18:44:49.517Z,19.30
2022-09-18T18:48:32.212Z,19.30
2022-09-18T18:52:13.999Z,19.20
2022-09-18T18:56:07.359Z,19.20
2022-09-18T18:59:49.731Z,19.20
2022-09-18T19:03:31.598Z,19.20
2022-09-18T19:07:13.399Z,19.10
2022-09-18T19:10:59.534Z,19.10
2022-09-18T19:14:42.049Z,19.00
2022-09-18T19:18:24.038Z,19.00
2022-09-18T19:22:06.068Z,18.90
2022-09-18T19:25:47.954Z,18.80
2022-09-18T19:29:30.579Z,18.70
2022-09-18T19:33:15.471Z,18.60
2022-09-18T19:36:58.029Z,18.60
2022-09-18T19:40:40.393Z,18.50
2022-09-18T19:44:36.340Z,18.40
2022-09-18T19:48:25.252Z,18.40
2022-09-18T19:52:20.056Z,18.20
2022-09-18T19:56:15.070Z,18.10
2022-09-18T20:00:05.613Z,17.80
2022-09-18T20:03:53.218Z,17.70
2022-09-18T20:07:36.331Z,17.60
2022-09-18T20:11:18.420Z,17.50
2022-09-18T20:15:02.416Z,17.30
2022-09-18T20:18:44.841Z,17.20
2022-09-18T20:22:27.355Z,17.10
2022-09-18T20:26:17.883Z,17.00
2022-09-18T20:29:59.692Z,16.90
2022-09-18T20:33:41.506Z,16.70
2022-09-18T20:37:26.160Z,16.60
2022-09-18T20:41:13.256Z,16.60
2022-09-18T20:44:55.490Z,16.40
2022-09-18T20:48:41.446Z,16.30
2022-09-18T20:52:23.623Z,16.20
2022-09-18T20:56:06.927Z,16.10
2022-09-18T20:59:49.350Z,16.00
2022-09-18T21:03:31.141Z,15.90
2022-09-18T21:07:13.039Z,15.80
2022-09-18T21:10:54.799Z,15.70
2022-09-18T21:14:36.990Z,15.60
2022-09-18T21:18:19.157Z,15.50
2022-09-18T21:22:01.011Z,15.40
2022-09-18T21:25:43.006Z,15.20
2022-09-18T21:29:26.857Z,14.90
2022-09-18T21:33:11.075Z,14.80
2022-09-18T21:36:58.311Z,14.70
2022-09-18T21:40:40.137Z,14.60
2022-09-18T21:44:27.308Z,14.50
2022-09-18T21:48:09.252Z,14.40
2022-09-18T21:51:54.935Z,14.40
2022-09-18T21:55:38.278Z,14.30
2022-09-18T21:59:25.201Z,14.40
2022-09-18T22:03:06.967Z,14.30
2022-09-18T22:06:49.885Z,14.20
2022-09-18T22:10:33.707Z,14.20
2022-09-18T22:14:22.821Z,14.10
2022-09-18T22:18:04.750Z,14.00
2022-09-18T22:21:50.030Z,14.00
2022-09-18T22:25:33.522Z,13.90
2022-09-18T22:29:18.325Z,13.80
2022-09-18T22:33:00.389Z,13.70
2022-09-18T22:36:42.199Z,13.70
2022-09-18T22:40:24.145Z,13.60
2022-09-18T22:44:07.359Z,13.60
2022-09-18T22:47:49.130Z,13.50
2022-09-18T22:51:30.974Z,13.40
2022-09-18T22:55:12.758Z,13.30
2022-09-18T22:58:55.945Z,13.10
2022-09-18T23:02:38.879Z,13.00
2022-09-18T23:06:25.359Z,12.90
2022-09-18T23:10:08.088Z,12.80
2022-09-18T23:13:52.773Z,12.70
2022-09-18T23:17:34.939Z,12.70
2022-09-18T23:21:17.203Z,12.70
2022-09-18T23:24:58.981Z,12.60
2022-09-18T23:28:43.656Z,12.60
2022-09-18T23:32:25.698Z,12.50
2022-09-18T23:36:14.043Z,12.50
2022-09-18T23:39:55.900Z,12.40
2022-09-18T23:43:38.872Z,12.40
2022-09-18T23:47:20.631Z,12.30
2022-09-18T23:51:02.847Z,12.20
2022-09-18T23:54:44.639Z,12.20
2022-09-18T23:58:26.376Z,12.10
